• Join FlightAware (Why Join?)
  • Login
  • US Flag 
06:39AM EDT


 

Airport Tracker/Info


-or-


 

Live Flight TrackerFlight Track Log ✈ DAL3606 ✈ 05-May-2014 ✈ KMSP - KCWA

Flight Track Log - Related Links

Times and Time Zones

All times are in EDT time to prevent confusion due to time zone crossing. See the DAL3606 flight status page for this flight to view local times or setup timezone preferences in your user account.

Time Position Orientation Groundspeed Altitude Reporting Facility
EDT Latitude Longitude Course Direction KTS MPH feet Rate Location/Type
05:28PM 44.8667 -93.1500 66° East 161 185 2,200  Level Minneapolis TRACON
05:28PM 44.8656 -93.1219 93° East 178 205 3,100 2,460 Climbing Minneapolis Center
05:29PM 44.8953 -93.0650 54° Northeast 209 241 6,200 1,860 Climbing Minneapolis Center
05:30PM 44.9586 -93.0281 22° Northeast 254 292 7,000 1,380 Climbing Minneapolis Center
05:31PM 45.0303 -92.9806 25° Northeast 280 322 9,100 2,400 Climbing Minneapolis Center
05:32PM 45.1056 -92.8889 41° Northeast 310 357 12,000 2,460 Climbing Minneapolis Center
05:33PM 45.0323 -92.6327 66° East  Level FlightAware Approximate
05:33PM 45.1650 -92.7919 49° Northeast 324 373 14,200  Level Minneapolis Center
05:34PM 45.2253 -92.6933 49° Northeast 328 377 16,400 1,920 Climbing Minneapolis Center
05:35PM 45.2653 -92.5656 66° East 368 423 18,200 1,560 Climbing Minneapolis Center
05:36PM 45.2742 -92.4197 85° East 376 433 19,700 1,320 Climbing Minneapolis Center
05:37PM 45.2511 -92.2636 102° East 400 460 21,000 1,440 Climbing Minneapolis Center
05:38PM 45.2236 -92.0722 101° East 409 471 22,700 960 Climbing Minneapolis Center
05:40PM 45.2006 -91.9056 101° East 426 490 23,000 120 Climbing Minneapolis Center
05:41PM 45.1731 -91.7219 102° East 460 529 23,000  Level Minneapolis Center
05:42PM 45.1450 -91.5325 102° East 483 556 23,000  Level Minneapolis Center
05:43PM 45.1161 -91.3414 102° East 489 563 23,000  Level Minneapolis Center
05:44PM 45.0883 -91.1497 102° East 494 568 23,000 -540 Level Minneapolis Center
05:45PM 45.0592 -90.9583 102° East 495 570 21,900 -2,220 Descending Minneapolis Center
05:46PM 45.0281 -90.7731 103° East 486 559 18,500 -3,720 Descending Minneapolis Center
05:47PM 44.9733 -90.5722 111° Southeast 460 529 14,300 -3,780 Descending Minneapolis Center
05:48PM 44.9289 -90.4072 111° Southeast 435 501 10,700 -2,400 Descending Minneapolis Center
05:49PM 44.8953 -90.2825 111° Southeast 352 405 9,400 -1,620 Descending Minneapolis Center
05:50PM 44.8642 -90.1672 111° Southeast 306 352 7,500 -1,860 Descending Minneapolis Center
05:51PM 44.8358 -90.0636 111° Southeast 277 319 5,700 -1,800 Descending Minneapolis Center
05:52PM 44.8097 -89.9653 110° East 262 302 3,800 -1,320 Descending Minneapolis Center
05:53PM 44.7831 -89.8711 112° Southeast 253 291 3,000 -420 Descending Minneapolis Center
05:54PM 44.7622 -89.7986 112° Southeast 214 246 3,000 -480 Level Minneapolis Center
05:55PM 44.7714 -89.7300 79° East 175 201 2,100 -540 Descending Minneapolis Center
05:56PM 44.7800 -89.6725 78° East 171 197 2,000 -120 Descending Minneapolis Center
05:58PM 44.7776 -89.6668 90° East  Level Estimated
06:05PM 44.7776 -89.6668 90° East  Level Estimated